createdAt,value
2023-04-01T00:00:41.293Z,0.00
2023-04-01T00:01:41.305Z,0.00
2023-04-01T00:02:41.493Z,0.00
2023-04-01T00:03:41.622Z,0.00
2023-04-01T00:04:41.621Z,0.00
2023-04-01T00:05:41.245Z,0.00
2023-04-01T00:06:41.322Z,0.00
2023-04-01T00:07:41.249Z,0.00
2023-04-01T00:08:41.203Z,0.00
2023-04-01T00:09:41.219Z,0.00
2023-04-01T00:10:41.187Z,0.00
2023-04-01T00:11:41.179Z,0.00
2023-04-01T00:12:41.159Z,0.00
2023-04-01T00:13:41.154Z,0.00
2023-04-01T00:14:41.161Z,0.00
2023-04-01T00:15:41.134Z,0.00
2023-04-01T00:16:41.167Z,0.00
2023-04-01T00:17:41.129Z,0.00
2023-04-01T00:18:41.134Z,0.00
2023-04-01T00:19:41.086Z,0.00
2023-04-01T00:20:41.095Z,0.00
2023-04-01T00:21:41.070Z,0.00
2023-04-01T00:22:41.045Z,0.00
2023-04-01T00:23:41.043Z,0.00
2023-04-01T00:24:41.059Z,0.00
2023-04-01T00:25:41.054Z,0.00
2023-04-01T00:26:41.009Z,0.00
2023-04-01T00:27:40.998Z,0.00
2023-04-01T00:28:41.042Z,0.00
2023-04-01T00:29:40.975Z,0.00
2023-04-01T00:30:40.970Z,0.00
2023-04-01T00:31:40.997Z,0.00
2023-04-01T00:32:41.009Z,0.00
2023-04-01T00:33:40.946Z,0.00
2023-04-01T00:34:40.968Z,0.00
2023-04-01T00:35:40.912Z,0.00
2023-04-01T00:36:40.975Z,0.00
2023-04-01T00:37:40.887Z,0.00
2023-04-01T00:38:40.877Z,0.00
2023-04-01T00:39:40.895Z,0.00
2023-04-01T00:40:40.858Z,0.00
2023-04-01T00:41:40.846Z,0.00
2023-04-01T00:42:40.836Z,0.00
2023-04-01T00:43:40.839Z,0.00
2023-04-01T00:44:40.833Z,0.00
2023-04-01T00:45:40.804Z,0.00
2023-04-01T00:46:40.876Z,0.00
2023-04-01T00:47:40.810Z,0.00
2023-04-01T00:48:40.789Z,0.00
2023-04-01T00:49:40.756Z,0.00
2023-04-01T00:50:40.798Z,0.00
2023-04-01T00:51:40.750Z,0.00
2023-04-01T00:52:40.736Z,0.00
2023-04-01T00:53:40.724Z,0.00
2023-04-01T00:54:40.702Z,0.00
2023-04-01T00:55:40.715Z,0.00
2023-04-01T00:56:40.685Z,0.00
2023-04-01T00:57:40.688Z,0.00
2023-04-01T00:58:40.664Z,0.00
2023-04-01T00:59:40.649Z,0.00
2023-04-01T01:00:40.679Z,0.00
2023-04-01T01:01:40.741Z,0.00
2023-04-01T01:02:40.812Z,0.00
2023-04-01T01:03:40.609Z,0.00
2023-04-01T01:04:40.613Z,0.00
2023-04-01T01:05:48.779Z,0.00
2023-04-01T01:06:40.615Z,0.00
2023-04-01T01:07:40.569Z,0.00
2023-04-01T01:08:40.553Z,0.00
2023-04-01T01:09:40.567Z,0.00
2023-04-01T01:10:40.528Z,0.00
2023-04-01T01:11:43.794Z,0.00
2023-04-01T01:12:40.504Z,0.00
2023-04-01T01:13:40.496Z,0.00
2023-04-01T01:14:40.507Z,0.00
2023-04-01T01:15:40.484Z,0.00
2023-04-01T01:16:40.572Z,0.00
2023-04-01T01:17:40.487Z,0.00
2023-04-01T01:18:40.439Z,0.00
2023-04-01T01:19:40.446Z,0.00
2023-04-01T01:20:40.413Z,0.00
2023-04-01T01:21:40.406Z,0.00
2023-04-01T01:22:40.438Z,0.00
2023-04-01T01:23:40.392Z,0.00
2023-04-01T01:24:40.376Z,0.00
2023-04-01T01:25:40.377Z,0.00
2023-04-01T01:26:40.361Z,0.00
2023-04-01T01:27:40.359Z,0.00
2023-04-01T01:28:40.326Z,0.00
2023-04-01T01:29:40.318Z,0.00
2023-04-01T01:30:40.358Z,0.00
2023-04-01T01:31:40.302Z,0.00
2023-04-01T01:32:40.308Z,0.00
2023-04-01T01:33:40.270Z,0.00
2023-04-01T01:34:40.264Z,0.00
2023-04-01T01:35:40.316Z,0.00
2023-04-01T01:36:40.240Z,0.00
2023-04-01T01:37:40.254Z,0.00
2023-04-01T01:38:40.238Z,0.00
2023-04-01T01:39:40.216Z,0.00
2023-04-01T01:40:40.202Z,0.00
2023-04-01T01:41:40.192Z,0.00
2023-04-01T01:42:40.199Z,0.00
2023-04-01T01:43:40.168Z,0.00
2023-04-01T01:44:40.147Z,0.00
2023-04-01T01:45:40.202Z,0.00
2023-04-01T01:46:40.272Z,0.00
2023-04-01T01:47:40.194Z,0.00
2023-04-01T01:48:40.102Z,0.00
2023-04-01T01:49:40.099Z,0.00
2023-04-01T01:50:40.087Z,0.00
2023-04-01T01:51:40.074Z,0.00
2023-04-01T01:52:40.083Z,0.00
2023-04-01T01:53:40.063Z,0.00
2023-04-01T01:54:40.062Z,0.00
2023-04-01T01:55:40.044Z,0.00
2023-04-01T01:56:40.060Z,0.00
2023-04-01T01:57:40.032Z,0.00
2023-04-01T01:58:39.997Z,0.00
2023-04-01T01:59:39.997Z,0.00
2023-04-01T02:00:39.977Z,0.00
2023-04-01T02:01:40.003Z,0.00
2023-04-01T02:02:39.988Z,0.00
2023-04-01T02:03:39.949Z,0.00
2023-04-01T02:04:39.967Z,0.00
2023-04-01T02:05:39.924Z,0.00
2023-04-01T02:06:39.906Z,0.00
2023-04-01T02:07:39.921Z,0.00
2023-04-01T02:08:39.887Z,0.00
2023-04-01T02:09:39.890Z,0.00
2023-04-01T02:10:39.887Z,0.00
2023-04-01T02:11:39.876Z,0.00
2023-04-01T02:12:39.852Z,0.00
2023-04-01T02:13:39.853Z,0.00
2023-04-01T02:14:39.813Z,0.00
2023-04-01T02:15:39.834Z,0.00
2023-04-01T02:16:39.812Z,0.00
2023-04-01T02:17:39.839Z,0.00
2023-04-01T02:18:39.788Z,0.00
2023-04-01T02:19:39.773Z,0.00
2023-04-01T02:20:39.757Z,0.00
2023-04-01T02:21:39.762Z,0.00
2023-04-01T02:22:39.731Z,0.00
2023-04-01T02:23:39.740Z,0.00
2023-04-01T02:24:39.709Z,0.00
2023-04-01T02:25:39.695Z,0.00
2023-04-01T02:26:39.707Z,0.00
2023-04-01T02:27:39.671Z,0.00
2023-04-01T02:28:39.680Z,0.00
2023-04-01T02:29:39.651Z,0.00
2023-04-01T02:30:39.664Z,0.00
2023-04-01T02:31:39.667Z,0.00
2023-04-01T02:32:39.679Z,0.00
2023-04-01T02:33:39.626Z,0.00
2023-04-01T02:34:39.605Z,0.00
2023-04-01T02:35:39.741Z,0.00
2023-04-01T02:36:39.591Z,0.00
2023-04-01T02:37:40.599Z,0.00
2023-04-01T02:38:39.581Z,0.00
2023-04-01T02:39:39.537Z,0.00
2023-04-01T02:40:39.530Z,0.00
2023-04-01T02:41:39.537Z,0.00
2023-04-01T02:42:39.534Z,0.00
2023-04-01T02:43:39.493Z,0.00
2023-04-01T02:44:39.482Z,0.00
2023-04-01T02:45:39.485Z,0.00
2023-04-01T02:46:39.514Z,0.00
2023-04-01T02:47:39.504Z,0.00
2023-04-01T02:48:39.445Z,0.00
2023-04-01T02:49:39.434Z,0.00
2023-04-01T02:50:39.421Z,0.00
2023-04-01T02:51:39.430Z,0.00
2023-04-01T02:52:39.401Z,0.00
2023-04-01T02:53:39.381Z,0.00
2023-04-01T02:54:39.376Z,0.00
2023-04-01T02:55:39.377Z,0.00
2023-04-01T02:56:39.377Z,0.00
2023-04-01T02:57:39.340Z,0.00
2023-04-01T02:58:39.350Z,0.00
2023-04-01T02:59:39.325Z,0.00
2023-04-01T03:00:39.314Z,0.00
2023-04-01T03:01:39.503Z,0.00
2023-04-01T03:02:39.367Z,0.00
2023-04-01T03:03:39.345Z,0.00
2023-04-01T03:04:39.272Z,0.00
2023-04-01T03:05:39.252Z,0.00
2023-04-01T03:06:39.243Z,0.00
2023-04-01T03:07:39.258Z,0.00
2023-04-01T03:08:39.225Z,0.00
2023-04-01T03:09:39.222Z,0.00
2023-04-01T03:10:39.202Z,0.00
2023-04-01T03:11:39.199Z,0.00
2023-04-01T03:12:39.196Z,0.00
2023-04-01T03:13:39.173Z,0.00
2023-04-01T03:14:39.182Z,0.00
2023-04-01T03:15:39.144Z,0.00
2023-04-01T03:16:39.145Z,0.00
2023-04-01T03:17:39.192Z,0.00
2023-04-01T03:18:39.125Z,0.00
2023-04-01T03:19:39.104Z,0.00
2023-04-01T03:20:39.095Z,0.00
2023-04-01T03:21:39.078Z,0.00
2023-04-01T03:22:41.432Z,0.00
2023-04-01T03:23:39.059Z,0.00
2023-04-01T03:24:39.075Z,0.00
2023-04-01T03:25:39.043Z,0.00
2023-04-01T03:26:39.024Z,0.00
2023-04-01T03:27:39.040Z,0.00
2023-04-01T03:28:38.999Z,0.00
2023-04-01T03:29:39.002Z,0.00
2023-04-01T03:30:39.033Z,0.00
2023-04-01T03:31:38.967Z,0.00
2023-04-01T03:32:39.019Z,0.00
2023-04-01T03:33:38.944Z,0.00
2023-04-01T03:34:38.950Z,0.00
2023-04-01T03:35:38.919Z,0.00
2023-04-01T03:36:38.927Z,0.00
2023-04-01T03:37:38.920Z,0.00
2023-04-01T03:38:38.886Z,0.00
2023-04-01T03:39:38.877Z,0.00
2023-04-01T03:40:38.869Z,0.00
2023-04-01T03:41:38.854Z,0.00
2023-04-01T03:42:38.901Z,0.00
2023-04-01T03:43:38.829Z,0.00
2023-04-01T03:44:38.841Z,0.00
2023-04-01T03:45:38.813Z,0.00
2023-04-01T03:46:38.963Z,0.00
2023-04-01T03:47:38.855Z,0.00
2023-04-01T03:48:38.781Z,0.00
2023-04-01T03:49:38.772Z,0.00
2023-04-01T03:50:38.768Z,0.00
2023-04-01T03:51:38.767Z,0.00
2023-04-01T03:52:38.740Z,0.00
2023-04-01T03:53:38.745Z,0.00
2023-04-01T03:54:38.714Z,0.00
2023-04-01T03:55:38.707Z,0.00
2023-04-01T03:56:38.712Z,0.00
2023-04-01T03:57:38.697Z,0.00
2023-04-01T03:58:38.669Z,0.00
2023-04-01T03:59:38.656Z,0.00
2023-04-01T04:00:38.647Z,0.00
2023-04-01T04:01:38.657Z,0.00
2023-04-01T04:02:38.711Z,0.00
2023-04-01T04:03:38.675Z,0.00
2023-04-01T04:04:38.640Z,0.00
2023-04-01T04:05:38.594Z,0.00
2023-04-01T04:06:38.620Z,0.00
2023-04-01T04:07:38.577Z,0.00
2023-04-01T04:08:38.562Z,0.00
2023-04-01T04:09:38.560Z,0.00
2023-04-01T04:10:38.537Z,0.00
2023-04-01T04:11:38.530Z,0.00
2023-04-01T04:12:38.565Z,0.00
2023-04-01T04:13:38.511Z,0.00
2023-04-01T04:14:38.493Z,0.00
2023-04-01T04:15:38.480Z,0.00
2023-04-01T04:16:38.474Z,0.00
2023-04-01T04:17:38.538Z,0.00
2023-04-01T04:18:38.480Z,0.00
2023-04-01T04:19:38.460Z,0.00
2023-04-01T04:20:38.437Z,0.00
2023-04-01T04:21:38.437Z,0.00
2023-04-01T04:22:38.412Z,0.00
2023-04-01T04:23:38.402Z,0.00
2023-04-01T04:24:38.413Z,0.00
2023-04-01T04:25:38.371Z,0.00
2023-04-01T04:26:38.364Z,0.00
2023-04-01T04:27:38.356Z,0.00
2023-04-01T04:28:38.348Z,0.00
2023-04-01T04:29:38.361Z,0.00
2023-04-01T04:30:38.322Z,0.00
2023-04-01T04:31:38.403Z,0.00
2023-04-01T04:32:38.408Z,0.00
2023-04-01T04:33:38.308Z,0.00
2023-04-01T04:34:38.302Z,0.00
2023-04-01T04:35:38.281Z,4.00
2023-04-01T04:36:38.253Z,4.00
2023-04-01T04:37:38.248Z,4.00
2023-04-01T04:38:38.262Z,4.00
2023-04-01T04:39:38.222Z,4.00
2023-04-01T04:40:38.217Z,4.00
2023-04-01T04:41:38.197Z,4.00
2023-04-01T04:42:38.198Z,4.00
2023-04-01T04:43:38.195Z,4.00
2023-04-01T04:44:38.171Z,4.00
2023-04-01T04:45:38.193Z,4.00
2023-04-01T04:46:38.253Z,4.00
2023-04-01T04:47:38.182Z,4.00
2023-04-01T04:48:38.116Z,4.00
2023-04-01T04:49:38.122Z,4.00
2023-04-01T04:50:38.149Z,8.00
2023-04-01T04:51:38.088Z,8.00
2023-04-01T04:52:38.079Z,4.00
2023-04-01T04:53:38.090Z,8.00
2023-04-01T04:54:38.062Z,8.00
2023-04-01T04:55:38.047Z,8.00
2023-04-01T04:56:38.037Z,8.00
2023-04-01T04:57:38.026Z,8.00
2023-04-01T04:58:38.029Z,8.00
2023-04-01T04:59:38.021Z,8.00
2023-04-01T05:00:38.017Z,12.00
2023-04-01T05:01:38.007Z,12.00
2023-04-01T05:02:38.043Z,16.00
2023-04-01T05:03:37.998Z,16.00
2023-04-01T05:04:37.974Z,12.00
2023-04-01T05:05:37.957Z,16.00
2023-04-01T05:06:37.947Z,16.00
2023-04-01T05:07:37.911Z,16.00
2023-04-01T05:08:37.929Z,16.00
2023-04-01T05:09:37.892Z,12.00
2023-04-01T05:10:37.885Z,16.00
2023-04-01T05:11:37.874Z,16.00
2023-04-01T05:12:37.859Z,24.00
2023-04-01T05:13:37.869Z,20.00
2023-04-01T05:14:37.836Z,20.00
2023-04-01T05:15:37.823Z,20.00
2023-04-01T05:16:37.857Z,20.00
2023-04-01T05:17:37.850Z,20.00
2023-04-01T05:18:37.812Z,24.00
2023-04-01T05:19:37.782Z,24.00
2023-04-01T05:20:37.776Z,24.00
2023-04-01T05:21:37.789Z,28.00
2023-04-01T05:22:37.766Z,24.00
2023-04-01T05:23:37.745Z,24.00
2023-04-01T05:24:37.727Z,24.00
2023-04-01T05:25:37.712Z,28.00
2023-04-01T05:26:37.735Z,28.00
2023-04-01T05:27:37.694Z,28.00
2023-04-01T05:28:37.695Z,28.00
2023-04-01T05:29:37.707Z,28.00
2023-04-01T05:30:37.700Z,28.00
2023-04-01T05:31:37.676Z,28.00
2023-04-01T05:32:37.731Z,32.00
2023-04-01T05:33:37.622Z,32.00
2023-04-01T05:34:37.631Z,36.00
2023-04-01T05:35:37.651Z,36.00
2023-04-01T05:36:37.606Z,36.00
2023-04-01T05:37:37.601Z,40.00
2023-04-01T05:38:37.597Z,44.00
2023-04-01T05:39:37.560Z,44.00
2023-04-01T05:40:37.553Z,44.00
2023-04-01T05:41:37.554Z,56.00
2023-04-01T05:42:38.418Z,64.00
2023-04-01T05:43:37.516Z,64.00
2023-04-01T05:44:37.509Z,60.00
2023-04-01T05:45:37.505Z,52.00
2023-04-01T05:46:37.633Z,48.00
2023-04-01T05:47:37.561Z,48.00
2023-04-01T05:48:37.460Z,52.00
2023-04-01T05:49:37.452Z,56.00
2023-04-01T05:50:37.455Z,56.00
2023-04-01T05:51:37.427Z,60.00
2023-04-01T05:52:37.419Z,68.00
2023-04-01T05:53:37.424Z,76.00
2023-04-01T05:54:37.417Z,80.00
2023-04-01T05:55:37.388Z,88.00
2023-04-01T05:56:37.392Z,100.00
2023-04-01T05:57:37.398Z,96.00
2023-04-01T05:58:37.377Z,92.00
2023-04-01T05:59:37.347Z,88.00
2023-04-01T06:00:37.337Z,92.00
2023-04-01T06:01:37.321Z,92.00
2023-04-01T06:02:37.378Z,96.00
2023-04-01T06:03:37.457Z,96.00
2023-04-01T06:04:37.308Z,100.00
2023-04-01T06:05:37.276Z,100.00
2023-04-01T06:06:37.266Z,104.00
2023-04-01T06:07:37.253Z,104.00
2023-04-01T06:08:37.289Z,100.00
2023-04-01T06:09:37.232Z,100.00
2023-04-01T06:10:37.240Z,96.00
2023-04-01T06:11:37.202Z,96.00
2023-04-01T06:12:37.198Z,92.00
2023-04-01T06:13:37.222Z,92.00
2023-04-01T06:14:37.181Z,92.00
2023-04-01T06:15:37.170Z,88.00
2023-04-01T06:16:37.203Z,80.00
2023-04-01T06:17:37.172Z,80.00
2023-04-01T06:18:37.159Z,76.00
2023-04-01T06:19:37.123Z,76.00
2023-04-01T06:20:37.111Z,72.00
2023-04-01T06:21:37.112Z,72.00
2023-04-01T06:22:37.104Z,72.00
2023-04-01T06:23:37.134Z,76.00
2023-04-01T06:24:37.078Z,72.00
2023-04-01T06:25:37.076Z,76.00
2023-04-01T06:26:37.068Z,76.00
2023-04-01T06:27:37.036Z,80.00
2023-04-01T06:28:37.054Z,80.00
2023-04-01T06:29:37.028Z,80.00
2023-04-01T06:30:37.000Z,88.00
2023-04-01T06:31:37.016Z,88.00
2023-04-01T06:32:37.031Z,96.00
2023-04-01T06:33:36.989Z,100.00
2023-04-01T06:34:36.966Z,104.00
2023-04-01T06:35:37.170Z,112.00
2023-04-01T06:36:36.973Z,120.00
2023-04-01T06:37:36.958Z,128.00
2023-04-01T06:38:36.942Z,144.00
2023-04-01T06:39:36.924Z,160.00
2023-04-01T06:40:36.896Z,172.00
2023-04-01T06:41:36.882Z,184.00
2023-04-01T06:42:36.902Z,188.00
2023-04-01T06:43:36.890Z,184.00
2023-04-01T06:44:36.873Z,184.00
2023-04-01T06:45:37.146Z,180.00
2023-04-01T06:46:36.829Z,180.00
2023-04-01T06:47:36.827Z,180.00
2023-04-01T06:48:36.803Z,180.00
2023-04-01T06:49:36.822Z,176.00
2023-04-01T06:50:36.792Z,172.00
2023-04-01T06:51:36.774Z,172.00
2023-04-01T06:52:36.763Z,172.00
2023-04-01T06:53:36.759Z,176.00
2023-04-01T06:54:36.762Z,176.00
2023-04-01T06:55:36.741Z,168.00
2023-04-01T06:56:36.744Z,164.00
2023-04-01T06:57:36.709Z,164.00
2023-04-01T06:58:36.720Z,172.00
2023-04-01T06:59:36.721Z,180.00
2023-04-01T07:00:36.685Z,180.00
2023-04-01T07:01:36.722Z,176.00
2023-04-01T07:02:36.654Z,180.00
2023-04-01T07:03:36.642Z,188.00
2023-04-01T07:04:36.707Z,196.00
2023-04-01T07:05:36.645Z,196.00
2023-04-01T07:06:36.605Z,200.00
2023-04-01T07:07:36.598Z,192.00
2023-04-01T07:08:36.583Z,192.00
2023-04-01T07:09:36.586Z,188.00
2023-04-01T07:10:36.581Z,180.00
2023-04-01T07:11:36.585Z,180.00
2023-04-01T07:12:36.549Z,176.00
2023-04-01T07:13:36.565Z,176.00
2023-04-01T07:14:36.542Z,176.00
2023-04-01T07:15:36.535Z,176.00
2023-04-01T07:16:36.509Z,168.00
2023-04-01T07:17:36.524Z,164.00
2023-04-01T07:18:36.550Z,152.00
2023-04-01T07:19:36.496Z,136.00
2023-04-01T07:20:36.487Z,128.00
2023-04-01T07:21:36.434Z,128.00
2023-04-01T07:22:36.435Z,132.00
2023-04-01T07:23:36.422Z,144.00
2023-04-01T07:24:36.400Z,168.00
2023-04-01T07:25:36.437Z,188.00
2023-04-01T07:26:36.379Z,208.00
2023-04-01T07:27:36.371Z,216.00
2023-04-01T07:28:36.353Z,220.00
2023-04-01T07:29:36.355Z,212.00
2023-04-01T07:30:36.378Z,212.00
2023-04-01T07:31:36.380Z,212.00
2023-04-01T07:32:36.554Z,216.00
2023-04-01T07:33:36.309Z,204.00
2023-04-01T07:34:36.291Z,172.00
2023-04-01T07:35:36.309Z,144.00
2023-04-01T07:36:36.287Z,144.00
2023-04-01T07:37:36.259Z,132.00
2023-04-01T07:38:36.307Z,120.00
2023-04-01T07:39:36.257Z,120.00
2023-04-01T07:40:36.255Z,144.00
2023-04-01T07:41:36.233Z,132.00
2023-04-01T07:42:36.203Z,164.00
2023-04-01T07:43:36.196Z,176.00
2023-04-01T07:44:36.181Z,184.00
2023-04-01T07:45:36.416Z,196.00
2023-04-01T07:46:36.251Z,220.00
2023-04-01T07:47:36.202Z,260.00
2023-04-01T07:48:36.140Z,280.00
2023-04-01T07:49:36.136Z,280.00
2023-04-01T07:50:36.135Z,304.00
2023-04-01T07:51:36.155Z,352.00
2023-04-01T07:52:36.092Z,348.00
2023-04-01T07:53:36.089Z,368.00
2023-04-01T07:54:36.097Z,376.00
2023-04-01T07:55:36.327Z,332.00
2023-04-01T07:56:36.049Z,360.00
2023-04-01T07:57:36.076Z,332.00
2023-04-01T07:58:36.028Z,364.00
2023-04-01T07:59:36.050Z,368.00
2023-04-01T08:00:36.015Z,372.00
2023-04-01T08:01:36.001Z,360.00
2023-04-01T08:02:36.090Z,400.00
2023-04-01T08:03:36.051Z,456.00
2023-04-01T08:04:36.037Z,456.00
2023-04-01T08:05:35.957Z,408.00
2023-04-01T08:06:35.944Z,468.00
2023-04-01T08:07:35.933Z,500.00
2023-04-01T08:08:35.925Z,496.00
2023-04-01T08:09:35.935Z,500.00
2023-04-01T08:10:35.894Z,484.00
2023-04-01T08:11:35.913Z,424.00
2023-04-01T08:12:35.877Z,356.00
2023-04-01T08:13:35.865Z,432.00
2023-04-01T08:14:35.856Z,384.00
2023-04-01T08:15:36.012Z,380.00
2023-04-01T08:16:35.922Z,436.00
2023-04-01T08:17:35.861Z,396.00
2023-04-01T08:18:35.826Z,396.00
2023-04-01T08:19:35.805Z,400.00
2023-04-01T08:20:35.808Z,364.00
2023-04-01T08:21:35.780Z,380.00
2023-04-01T08:22:35.768Z,392.00
2023-04-01T08:23:35.752Z,348.00
2023-04-01T08:24:46.343Z,376.00
2023-04-01T08:25:36.749Z,392.00
2023-04-01T08:26:35.718Z,444.00
2023-04-01T08:27:35.717Z,468.00
2023-04-01T08:28:35.686Z,432.00
2023-04-01T08:29:35.693Z,472.00
2023-04-01T08:30:35.689Z,456.00
2023-04-01T08:31:35.680Z,448.00
2023-04-01T08:32:35.669Z,428.00
2023-04-01T08:33:35.663Z,408.00
2023-04-01T08:34:35.646Z,432.00
2023-04-01T08:35:38.270Z,440.00
2023-04-01T08:36:35.635Z,460.00
2023-04-01T08:37:35.621Z,436.00
2023-04-01T08:38:35.589Z,396.00
2023-04-01T08:39:35.573Z,440.00
2023-04-01T08:40:35.574Z,404.00
2023-04-01T08:41:35.556Z,428.00
2023-04-01T08:42:35.559Z,460.00
2023-04-01T08:43:35.537Z,464.00
2023-04-01T08:44:35.559Z,508.00
2023-04-01T08:45:35.775Z,532.00
2023-04-01T08:46:35.518Z,496.00
2023-04-01T08:47:35.543Z,448.00
2023-04-01T08:48:35.480Z,420.00
2023-04-01T08:49:35.481Z,428.00
2023-04-01T08:50:35.521Z,432.00
2023-04-01T08:51:35.467Z,476.00
2023-04-01T08:52:35.425Z,452.00
2023-04-01T08:53:35.418Z,460.00
2023-04-01T08:54:35.442Z,476.00
2023-04-01T08:55:35.652Z,476.00
2023-04-01T08:56:35.397Z,484.00
2023-04-01T08:57:35.427Z,492.00
2023-04-01T08:58:35.384Z,476.00
2023-04-01T08:59:35.375Z,464.00
2023-04-01T09:00:35.342Z,488.00
2023-04-01T09:01:35.337Z,504.00
2023-04-01T09:02:35.428Z,536.00
2023-04-01T09:03:35.378Z,504.00
2023-04-01T09:04:35.363Z,488.00
2023-04-01T09:05:35.500Z,492.00
2023-04-01T09:06:35.326Z,492.00
2023-04-01T09:07:35.266Z,468.00
2023-04-01T09:08:35.253Z,572.00
2023-04-01T09:09:35.263Z,500.00
2023-04-01T09:10:35.232Z,508.00
2023-04-01T09:11:35.241Z,504.00
2023-04-01T09:12:35.209Z,484.00
2023-04-01T09:13:35.198Z,492.00
2023-04-01T09:14:35.225Z,500.00
2023-04-01T09:15:35.443Z,556.00
2023-04-01T09:16:35.215Z,564.00
2023-04-01T09:17:35.182Z,592.00
2023-04-01T09:18:35.145Z,544.00
2023-04-01T09:19:35.136Z,524.00
2023-04-01T09:20:35.151Z,424.00
2023-04-01T09:21:35.114Z,408.00
2023-04-01T09:22:35.125Z,444.00
2023-04-01T09:23:35.092Z,480.00
2023-04-01T09:24:35.084Z,520.00
2023-04-01T09:25:35.461Z,544.00
2023-04-01T09:26:35.059Z,588.00
2023-04-01T09:27:35.048Z,564.00
2023-04-01T09:28:35.036Z,592.00
2023-04-01T09:29:35.027Z,504.00
2023-04-01T09:30:35.012Z,480.00
2023-04-01T09:31:35.105Z,460.00
2023-04-01T09:32:35.018Z,496.00
2023-04-01T09:33:34.987Z,552.00
2023-04-01T09:34:34.972Z,540.00
2023-04-01T09:35:35.326Z,536.00
2023-04-01T09:36:34.965Z,528.00
2023-04-01T09:37:34.949Z,584.00
2023-04-01T09:38:34.947Z,556.00
2023-04-01T09:39:34.924Z,508.00
2023-04-01T09:40:34.908Z,524.00
2023-04-01T09:41:34.918Z,532.00
2023-04-01T09:42:34.886Z,552.00
2023-04-01T09:43:34.871Z,572.00
2023-04-01T09:44:34.870Z,612.00
2023-04-01T09:45:35.166Z,632.00
2023-04-01T09:46:34.902Z,604.00
2023-04-01T09:47:34.861Z,704.00
2023-04-01T09:48:34.824Z,684.00
2023-04-01T09:49:34.817Z,620.00
2023-04-01T09:50:34.798Z,584.00
2023-04-01T09:51:34.826Z,740.00
2023-04-01T09:52:34.792Z,632.00
2023-04-01T09:53:34.775Z,696.00
2023-04-01T09:54:34.776Z,732.00
2023-04-01T09:55:34.954Z,540.00
2023-04-01T09:56:34.757Z,512.00
2023-04-01T09:57:34.796Z,652.00
2023-04-01T09:58:34.707Z,592.00
2023-04-01T09:59:35.705Z,560.00
2023-04-01T10:00:34.735Z,588.00
2023-04-01T10:01:34.732Z,572.00
2023-04-01T10:02:34.714Z,616.00
2023-04-01T10:03:34.661Z,624.00
2023-04-01T10:04:34.638Z,660.00
2023-04-01T10:05:34.949Z,580.00
2023-04-01T10:06:34.639Z,520.00
2023-04-01T10:07:34.614Z,520.00
2023-04-01T10:08:34.597Z,556.00
2023-04-01T10:09:34.582Z,552.00
2023-04-01T10:10:34.623Z,716.00
2023-04-01T10:11:34.568Z,744.00
2023-04-01T10:12:34.556Z,580.00
2023-04-01T10:13:34.549Z,564.00
2023-04-01T10:14:34.532Z,548.00
2023-04-01T10:15:34.782Z,640.00
2023-04-01T10:16:34.579Z,880.00
2023-04-01T10:17:34.515Z,876.00
2023-04-01T10:18:34.483Z,732.00
2023-04-01T10:19:34.469Z,780.00
2023-04-01T10:20:34.464Z,824.00
2023-04-01T10:21:34.476Z,776.00
2023-04-01T10:22:34.447Z,800.00
2023-04-01T10:23:34.435Z,808.00
2023-04-01T10:24:34.470Z,768.00
2023-04-01T10:25:34.909Z,804.00
2023-04-01T10:26:34.435Z,776.00
2023-04-01T10:27:34.454Z,760.00
2023-04-01T10:28:34.403Z,852.00
2023-04-01T10:29:34.364Z,696.00
2023-04-01T10:30:34.351Z,632.00
2023-04-01T10:31:34.359Z,568.00
2023-04-01T10:32:34.347Z,528.00
2023-04-01T10:33:34.352Z,536.00
2023-04-01T10:34:34.319Z,516.00
2023-04-01T10:35:34.566Z,504.00
2023-04-01T10:36:34.282Z,868.00
2023-04-01T10:37:34.278Z,776.00
2023-04-01T10:38:34.260Z,568.00
2023-04-01T10:39:34.269Z,508.00
2023-04-01T10:40:34.250Z,536.00
2023-04-01T10:41:34.228Z,688.00
2023-04-01T10:42:34.245Z,564.00
2023-04-01T10:43:34.209Z,548.00
2023-04-01T10:44:34.221Z,556.00
2023-04-01T10:45:34.558Z,588.00
2023-04-01T10:46:34.317Z,540.00
2023-04-01T10:47:34.198Z,536.00
2023-04-01T10:48:34.149Z,540.00
2023-04-01T10:49:34.168Z,556.00
2023-04-01T10:50:34.160Z,612.00
2023-04-01T10:51:34.174Z,580.00
2023-04-01T10:52:34.111Z,552.00
2023-04-01T10:53:34.108Z,612.00
2023-04-01T10:54:34.106Z,520.00
2023-04-01T10:55:34.440Z,588.00
2023-04-01T10:56:34.100Z,680.00
2023-04-01T10:57:34.148Z,696.00
2023-04-01T10:58:34.064Z,824.00
2023-04-01T10:59:34.029Z,800.00
2023-04-01T11:00:34.040Z,844.00
2023-04-01T11:01:34.058Z,820.00
2023-04-01T11:02:34.065Z,812.00
2023-04-01T11:03:34.052Z,804.00
2023-04-01T11:04:33.996Z,780.00
2023-04-01T11:05:34.358Z,784.00
2023-04-01T11:06:33.961Z,780.00
2023-04-01T11:07:33.945Z,728.00
2023-04-01T11:08:33.950Z,676.00
2023-04-01T11:09:33.941Z,692.00
2023-04-01T11:10:33.956Z,776.00
2023-04-01T11:11:33.916Z,768.00
2023-04-01T11:12:33.913Z,828.00
2023-04-01T11:13:33.883Z,824.00
2023-04-01T11:14:33.893Z,788.00
2023-04-01T11:15:34.194Z,644.00
2023-04-01T11:16:33.925Z,580.00
2023-04-01T11:17:34.064Z,596.00
2023-04-01T11:18:33.829Z,532.00
2023-04-01T11:19:33.806Z,564.00
2023-04-01T11:20:33.800Z,524.00
2023-04-01T11:21:33.811Z,560.00
2023-04-01T11:22:33.801Z,572.00
2023-04-01T11:23:33.774Z,604.00
2023-04-01T11:24:33.805Z,564.00
2023-04-01T11:25:34.209Z,588.00
2023-04-01T11:26:33.800Z,580.00
2023-04-01T11:27:33.750Z,564.00
2023-04-01T11:28:33.735Z,556.00
2023-04-01T11:29:33.731Z,548.00
2023-04-01T11:30:33.777Z,524.00
2023-04-01T11:31:33.787Z,488.00
2023-04-01T11:32:33.720Z,544.00
2023-04-01T11:33:33.650Z,564.00
2023-04-01T11:34:33.648Z,516.00
2023-04-01T11:35:33.842Z,504.00
2023-04-01T11:36:33.730Z,480.00
2023-04-01T11:37:33.642Z,608.00
2023-04-01T11:38:33.601Z,464.00
2023-04-01T11:39:33.616Z,448.00
2023-04-01T11:40:33.582Z,544.00
2023-04-01T11:41:33.598Z,560.00
2023-04-01T11:42:33.586Z,548.00
2023-04-01T11:43:34.163Z,528.00
2023-04-01T11:44:33.538Z,520.00
2023-04-01T11:45:33.685Z,552.00
2023-04-01T11:46:33.595Z,532.00
2023-04-01T11:47:33.592Z,520.00
2023-04-01T11:48:33.513Z,540.00
2023-04-01T11:49:33.484Z,544.00
2023-04-01T11:50:33.472Z,556.00
2023-04-01T11:51:33.460Z,560.00
2023-04-01T11:52:33.487Z,528.00
2023-04-01T11:53:33.451Z,516.00
2023-04-01T11:54:33.432Z,516.00
2023-04-01T11:55:33.584Z,524.00
2023-04-01T11:56:33.403Z,512.00
2023-04-01T11:57:33.465Z,516.00
2023-04-01T11:58:33.407Z,536.00
2023-04-01T11:59:33.369Z,524.00
2023-04-01T12:00:33.370Z,476.00
2023-04-01T12:01:33.342Z,488.00
2023-04-01T12:02:33.427Z,508.00
2023-04-01T12:03:33.454Z,500.00
2023-04-01T12:04:33.375Z,488.00
2023-04-01T12:05:33.445Z,488.00
2023-04-01T12:06:33.295Z,480.00
2023-04-01T12:07:33.276Z,444.00
2023-04-01T12:08:33.292Z,460.00
2023-04-01T12:09:33.249Z,460.00
2023-04-01T12:10:33.247Z,424.00
2023-04-01T12:11:33.239Z,472.00
2023-04-01T12:12:33.224Z,444.00
2023-04-01T12:13:33.243Z,484.00
2023-04-01T12:14:33.239Z,472.00
2023-04-01T12:15:33.455Z,480.00
2023-04-01T12:16:33.254Z,524.00
2023-04-01T12:17:33.209Z,512.00
2023-04-01T12:18:33.182Z,552.00
2023-04-01T12:19:33.169Z,572.00
2023-04-01T12:20:33.162Z,576.00
2023-04-01T12:21:33.143Z,492.00
2023-04-01T12:22:33.969Z,508.00
2023-04-01T12:23:33.120Z,488.00
2023-04-01T12:24:33.097Z,484.00
2023-04-01T12:25:33.411Z,488.00
2023-04-01T12:26:33.069Z,448.00
2023-04-01T12:27:33.060Z,444.00
2023-04-01T12:28:33.056Z,448.00
2023-04-01T12:29:33.035Z,496.00
2023-04-01T12:30:33.063Z,500.00
2023-04-01T12:31:33.022Z,464.00
2023-04-01T12:32:33.118Z,472.00
2023-04-01T12:33:32.987Z,472.00
2023-04-01T12:34:33.014Z,444.00
2023-04-01T12:35:33.265Z,484.00
2023-04-01T12:36:32.984Z,476.00
2023-04-01T12:37:32.948Z,492.00
2023-04-01T12:38:32.936Z,416.00
2023-04-01T12:39:32.946Z,444.00
2023-04-01T12:40:33.128Z,448.00
2023-04-01T12:41:32.928Z,468.00
2023-04-01T12:42:32.897Z,588.00
2023-04-01T12:43:32.883Z,676.00
2023-04-01T12:44:32.877Z,664.00
2023-04-01T12:45:33.136Z,524.00
2023-04-01T12:46:32.997Z,396.00
2023-04-01T12:47:32.863Z,356.00
2023-04-01T12:48:32.832Z,364.00
2023-04-01T12:49:32.823Z,440.00